Flight Track Log - Related Links

Times and Time Zones

All times are in EDT time to prevent confusion due to time zone crossing. See the EJA102 flight status page for this flight to view local times or setup timezone preferences in your user account.

Time Position Orientation Groundspeed Altitude Reporting Facility
EDT Latitude Longitude Course Direction KTS MPH feet Rate Location/Type
Thu 08:44:14 PM 40.8333 -74.1000 258° West 168 193 1,300  Level New York TRACON
Thu 08:45:19 PM 40.8167 -74.2000 258° West 249 287 2,700 1,866 Climbing New York TRACON
Thu 08:46:13 PM 40.8500 -74.2500 311° West 284 327 5,000 1,722 Climbing New York TRACON
Thu 08:47:14 PM 40.9333 -74.2333 North 295 339 6,000 472 Climbing New York TRACON
Thu 08:48:20 PM 41.0167 -74.2000 17° North 299 344 6,000  Level New York TRACON
Thu 08:49:20 PM 41.1000 -74.1667 17° North 296 341 6,000 700 Level New York TRACON
Thu 08:50:20 PM 41.1500 -74.0833 51° Northeast 274 315 7,400 1,579 Climbing New York TRACON
Thu 08:51:14 PM 41.1667 -74.0000 75° East 281 323 9,000 842 Climbing New York TRACON
Thu 08:52:14 PM 41.2000 -73.9000 66° East 289 333 9,000  Level New York TRACON
Thu 08:53:14 PM 41.2333 -73.8000 66° East 286 329 9,000  Level New York TRACON
Thu 08:54:14 PM 41.2500 -73.7000 77° East 287 330 9,000  Level New York TRACON
Thu 08:55:14 PM 41.2833 -73.6000 66° East 294 338 9,000  Level New York TRACON
Thu 08:56:14 PM 41.3167 -73.5000 66° East 299 344 9,000  Level New York TRACON
Thu 08:57:14 PM 41.3500 -73.4000 66° East 301 346 9,000 51 Level New York TRACON
Thu 08:58:12 PM 41.3800 -73.3033 68° East 303 349 9,100  Climbing Boston Center
Thu 08:59:37 PM 41.4292 -73.1544 66° East 306 352 9,000 -39 Descending Boston Center
Thu 09:00:44 PM 41.4692 -73.0439 64° Northeast 305 351 9,000  Level Boston Center
Thu 09:01:39 PM 41.5031 -72.9500 64° Northeast 306 352 9,000  Level Boston Center
Thu 09:02:39 PM 41.5389 -72.8478 65° Northeast 306 352 9,000  Level Boston Center
Thu 09:03:34 PM 41.5539 -72.7508 78° East 300 345 9,000  Level Boston Center
Thu 09:04:35 PM 41.5436 -72.6397 97° East 298 343 9,000 50 Level Boston Center
Thu 09:05:33 PM 41.5397 -72.5400 93° East 298 343 9,100 -407 Climbing Boston Center
Thu 09:06:33 PM 41.5314 -72.4289 96° East 298 343 8,200 -992 Descending Boston Center
Thu 09:07:34 PM 41.5022 -72.3292 111° Southeast 299 344 7,100 -1,041 Descending Boston Center
Thu 09:08:34 PM 41.4542 -72.2517 130° Southeast 264 304 6,100 -991 Descending Boston Center
Thu 09:09:29 PM 41.4289 -72.1633 111° Southeast 289 333 5,200 -574 Descending Boston Center
Thu 09:10:29 PM 41.4244 -72.0664 93° East 270 311 5,000 -99 Descending Boston Center
Thu 09:11:30 PM 41.4117 -71.9669 100° East 270 311 5,000  Level Boston Center
Thu 09:12:31 PM 41.4028 -71.8700 97° East 269 310 5,000  Level Boston Center
Thu 09:13:31 PM 41.3939 -71.7650 96° East 287 330 5,000  Level Boston Center
Thu 09:14:32 PM 41.3828 -71.6600 98° East 288 331 5,000  Level Boston Center
Thu 09:15:32 PM 41.3736 -71.5467 96° East 288 331 5,000  Level Boston Center
Thu 09:16:27 PM 41.3625 -71.4583 99° East 287 330 5,000  Level Boston Center
Thu 09:17:28 PM 41.3633 -71.3450 89° East 292 336 5,000  Level Boston Center
Thu 09:19:00 PM 41.3667 -71.1629 90° East  Level FlightAware Approximate
Thu 09:26:00 PM 41.3934 -70.6139 North  Level Estimated
Thu 09:27:00 PM 41.3934 -70.6139 North  Level Estimated
Thu 09:28:00 PM 41.3934 -70.6139 North  Level Estimated
Thu 09:29:00 PM 41.3934 -70.6139 North  Level Estimated

Login

Don't have an account? Register now (free) for customized features, flight alerts, and more!